Time;durP1;ratioP1;P1;durP2;ratioP2;P2;SDS_P1;SDS_P2;PMS_P1;PMS_P2;Temp;Humidity;BMP_temperature;BMP_pressure;BME280_temperature;BME280_humidity;BME280_pressure;Samples;Min_cycle;Max_cycle;Signal;HPM_P1;HPM_P2
2020/12/12 00:02:09;;;;;;;33.65;20.05;;;1.90;99.90;;;;;;5002954;28;20268;-81
2020/12/12 00:04:40;;;;;;;44.35;17.58;;;1.90;99.90;;;;;;5007673;28;20612;-81
2020/12/12 00:07:08;;;;;;;36.67;18.50;;;1.90;99.90;;;;;;5026221;28;20173;-81
2020/12/12 00:09:35;;;;;;;35.00;20.83;;;1.90;99.90;;;;;;5022936;28;20187;-81
2020/12/12 00:12:03;;;;;;;26.38;13.02;;;1.90;99.90;;;;;;5023897;28;20285;-81
2020/12/12 00:14:35;;;;;;;33.40;18.92;;;1.90;99.90;;;;;;5005976;28;20198;-81
2020/12/12 00:17:05;;;;;;;32.33;15.10;;;1.80;99.90;;;;;;5004487;28;20236;-82
2020/12/12 00:19:32;;;;;;;27.92;13.10;;;1.80;99.90;;;;;;5006731;28;20653;-81
2020/12/12 00:21:59;;;;;;;31.60;17.63;;;1.80;99.90;;;;;;5006536;28;20198;-81
2020/12/12 00:24:28;;;;;;;27.65;14.32;;;1.80;99.90;;;;;;5022394;28;20175;-83
2020/12/12 00:26:56;;;;;;;46.88;15.30;;;1.80;99.90;;;;;;5005908;28;20253;-81
2020/12/12 00:29:24;;;;;;;35.20;18.40;;;1.80;99.90;;;;;;5005048;28;20286;-82
2020/12/12 00:31:55;;;;;;;41.03;18.98;;;1.80;99.90;;;;;;5021130;28;20225;-80
2020/12/12 00:34:27;;;;;;;28.42;15.77;;;1.70;99.90;;;;;;5026805;28;20174;-81
2020/12/12 00:36:55;;;;;;;29.73;14.77;;;1.70;99.90;;;;;;5010682;28;20302;-81
2020/12/12 00:39:23;;;;;;;40.10;19.50;;;1.60;99.90;;;;;;5016557;28;20290;-80
2020/12/12 00:41:50;;;;;;;29.92;13.90;;;1.60;99.90;;;;;;5026481;28;20198;-80
2020/12/12 00:44:18;;;;;;;39.90;17.20;;;1.50;99.90;;;;;;5007984;28;20182;-81
2020/12/12 00:46:45;;;;;;;48.38;18.45;;;1.60;99.90;;;;;;5006998;28;20214;-81
2020/12/12 00:49:14;;;;;;;28.65;15.68;;;1.60;99.90;;;;;;5023852;28;20237;-80
2020/12/12 00:51:42;;;;;;;41.30;17.83;;;1.50;99.90;;;;;;5023428;28;20186;-81
2020/12/12 00:54:09;;;;;;;33.47;18.77;;;1.50;99.90;;;;;;5007681;28;20197;-81
2020/12/12 00:56:37;;;;;;;39.15;19.42;;;1.50;99.90;;;;;;5008039;28;20218;-81
2020/12/12 00:59:04;;;;;;;32.25;13.93;;;1.40;99.90;;;;;;5005165;28;20545;-81
2020/12/12 01:01:34;;;;;;;34.08;19.25;;;1.40;99.90;;;;;;5023541;28;20202;-79
2020/12/12 01:04:04;;;;;;;31.27;15.60;;;1.30;99.90;;;;;;5006471;28;20186;-80
2020/12/12 01:06:40;;;;;;;24.70;15.07;;;1.30;99.90;;;;;;5006538;28;20206;-81
2020/12/12 01:09:17;;;;;;;27.75;16.48;;;1.20;99.90;;;;;;4988209;28;20204;-82
2020/12/12 01:11:56;;;;;;;36.67;18.25;;;1.20;99.90;;;;;;5021469;28;20178;-79
2020/12/12 01:14:28;;;;;;;30.50;16.85;;;1.10;99.90;;;;;;5003779;28;20181;-80
2020/12/12 01:16:59;;;;;;;27.95;13.45;;;1.10;99.90;;;;;;5020339;28;20229;-80
2020/12/12 01:19:27;;;;;;;31.15;17.30;;;1.10;99.90;;;;;;5020574;28;20179;-79
2020/12/12 01:21:55;;;;;;;39.75;16.75;;;1.10;99.90;;;;;;5006008;28;20190;-80
2020/12/12 01:24:22;;;;;;;20.38;16.40;;;1.10;99.90;;;;;;5020493;28;20194;-80
2020/12/12 01:26:50;;;;;;;27.58;13.18;;;1.00;99.90;;;;;;5003752;28;20218;-82
2020/12/12 01:29:22;;;;;;;28.13;18.83;;;1.00;99.90;;;;;;5002924;28;20202;-81
2020/12/12 01:31:50;;;;;;;24.30;14.80;;;1.00;99.90;;;;;;5021763;28;20171;-81
2020/12/12 01:34:21;;;;;;;24.17;13.52;;;1.00;99.90;;;;;;5020398;28;20194;-80
2020/12/12 01:37:21;;;;;;;33.25;16.83;;;0.90;99.90;;;;;;5002807;28;20607;-81
2020/12/12 01:39:54;;;;;;;45.63;18.65;;;0.90;99.90;;;;;;4987252;28;20226;-81
2020/12/12 01:42:39;;;;;;;26.27;12.40;;;1.00;99.90;;;;;;5002654;28;20198;-80
2020/12/12 01:45:17;;;;;;;35.25;12.75;;;0.90;99.90;;;;;;5020158;28;20209;-81
2020/12/12 01:47:50;;;;;;;25.40;16.95;;;0.90;99.90;;;;;;5021341;28;20684;-81
2020/12/12 01:50:23;;;;;;;31.42;14.93;;;0.90;99.90;;;;;;5002797;28;20202;-81
2020/12/12 01:52:57;;;;;;;23.90;13.07;;;0.90;99.90;;;;;;5021239;28;20474;-81
2020/12/12 01:55:25;;;;;;;24.40;13.88;;;0.90;99.90;;;;;;5002154;28;20214;-80
2020/12/12 01:57:53;;;;;;;25.17;15.55;;;0.90;99.90;;;;;;5001311;28;20692;-81
2020/12/12 02:00:22;;;;;;;25.25;14.50;;;0.90;99.90;;;;;;5001061;28;20201;-81
2020/12/12 02:02:53;;;;;;;40.90;17.40;;;0.90;99.90;;;;;;5020067;28;20220;-81
2020/12/12 02:05:41;;;;;;;28.65;16.15;;;0.90;99.90;;;;;;5021181;28;20223;-81
2020/12/12 02:08:12;;;;;;;25.27;9.45;;;0.80;99.90;;;;;;5022145;28;20175;-80
2020/12/12 02:10:43;;;;;;;21.88;14.93;;;0.80;99.90;;;;;;5035239;28;20210;-79
2020/12/12 02:13:12;;;;;;;31.70;13.57;;;0.80;99.90;;;;;;5035917;28;20178;-79
2020/12/12 02:15:40;;;;;;;30.02;15.70;;;0.80;99.90;;;;;;5018943;28;20206;-80
2020/12/12 02:18:18;;;;;;;34.72;17.25;;;0.80;99.90;;;;;;5038185;28;20259;-80
2020/12/12 02:20:51;;;;;;;49.03;20.05;;;0.80;99.90;;;;;;5038511;28;20197;-79
2020/12/12 02:23:19;;;;;;;51.85;13.45;;;0.80;99.90;;;;;;5038227;28;20159;-78
2020/12/12 02:25:47;;;;;;;36.95;14.32;;;0.80;99.90;;;;;;5021031;28;20213;-80
2020/12/12 02:28:33;;;;;;;30.13;15.18;;;0.80;99.90;;;;;;5018557;28;20190;-81
2020/12/12 02:31:00;;;;;;;29.75;15.75;;;0.80;99.90;;;;;;5029061;28;20174;-80
2020/12/12 02:33:28;;;;;;;27.45;14.38;;;0.80;99.90;;;;;;5031594;28;20182;-80
2020/12/12 02:35:56;;;;;;;48.17;15.43;;;0.80;99.90;;;;;;5032108;28;20205;-80
2020/12/12 02:38:24;;;;;;;24.48;14.98;;;0.80;99.90;;;;;;5013211;28;20204;-80
2020/12/12 02:40:52;;;;;;;28.08;14.45;;;0.80;99.90;;;;;;5023167;28;20190;-81
2020/12/12 02:43:19;;;;;;;33.40;13.52;;;0.80;99.90;;;;;;5003126;28;20225;-81
2020/12/12 02:45:47;;;;;;;32.50;13.25;;;0.80;99.90;;;;;;5021038;28;20225;-81
2020/12/12 02:48:15;;;;;;;40.90;15.70;;;0.80;99.90;;;;;;5003509;28;20197;-81
2020/12/12 02:50:43;;;;;;;37.35;15.77;;;0.80;99.90;;;;;;5007149;28;20252;-80
2020/12/12 02:53:11;;;;;;;27.65;14.95;;;0.80;99.90;;;;;;5009908;28;20201;-79
2020/12/12 02:55:39;;;;;;;17.77;10.93;;;0.80;99.90;;;;;;5029851;28;20237;-81
2020/12/12 02:58:06;;;;;;;24.38;13.80;;;0.80;99.90;;;;;;5027089;28;20174;-81
2020/12/12 03:00:34;;;;;;;20.30;13.32;;;0.90;99.90;;;;;;5027966;28;20262;-80
2020/12/12 03:03:01;;;;;;;38.05;13.38;;;0.80;99.90;;;;;;5019214;28;20258;-81
2020/12/12 03:05:29;;;;;;;24.98;15.23;;;0.90;99.90;;;;;;5035523;28;20232;-78
2020/12/12 03:07:56;;;;;;;29.45;14.95;;;0.90;99.90;;;;;;5012852;28;20633;-78
2020/12/12 03:10:23;;;;;;;24.17;14.13;;;0.90;99.90;;;;;;5013463;28;20194;-80
2020/12/12 03:12:51;;;;;;;21.52;13.55;;;0.90;99.90;;;;;;5013766;28;20198;-77
2020/12/12 03:15:18;;;;;;;20.33;13.95;;;0.90;99.90;;;;;;5013141;28;20285;-78
2020/12/12 03:17:46;;;;;;;33.55;12.23;;;0.90;99.90;;;;;;5028696;28;20224;-79
2020/12/12 03:20:13;;;;;;;29.58;13.55;;;0.90;99.90;;;;;;5013622;28;20182;-79
2020/12/12 03:22:41;;;;;;;42.85;19.10;;;0.90;99.90;;;;;;5017166;28;20225;-82
2020/12/12 03:25:08;;;;;;;35.13;13.77;;;0.90;99.90;;;;;;5007819;28;20708;-80
2020/12/12 03:27:35;;;;;;;25.13;12.77;;;0.90;99.90;;;;;;5003403;28;20218;-80
2020/12/12 03:30:03;;;;;;;32.50;16.00;;;0.90;99.90;;;;;;5020481;28;20197;-79
2020/12/12 03:32:32;;;;;;;21.45;11.50;;;0.90;99.90;;;;;;5003217;28;20194;-81
2020/12/12 03:34:59;;;;;;;38.95;14.68;;;1.00;99.90;;;;;;5004599;28;20280;-79
2020/12/12 03:37:26;;;;;;;25.15;14.10;;;1.00;99.90;;;;;;5022321;28;20293;-80
2020/12/12 03:39:54;;;;;;;28.20;13.40;;;1.00;99.90;;;;;;5032122;28;20254;-79
2020/12/12 03:42:21;;;;;;;14.80;9.38;;;1.00;99.90;;;;;;5013176;28;20225;-79
2020/12/12 03:44:48;;;;;;;22.42;11.70;;;0.90;99.90;;;;;;5011660;28;20190;-79
2020/12/12 03:47:16;;;;;;;29.15;13.63;;;1.00;99.90;;;;;;5031495;28;20240;-80
2020/12/12 03:49:44;;;;;;;18.70;10.32;;;1.00;99.90;;;;;;5002244;28;20603;-81
2020/12/12 03:52:11;;;;;;;25.92;13.85;;;1.00;99.90;;;;;;5019309;28;20182;-80
2020/12/12 03:54:38;;;;;;;21.25;12.63;;;1.00;99.90;;;;;;5019514;28;20663;-80
2020/12/12 03:57:06;;;;;;;27.10;13.90;;;1.00;99.90;;;;;;5001695;28;20214;-80
2020/12/12 03:59:33;;;;;;;30.33;17.27;;;1.00;99.90;;;;;;5001958;28;20197;-79
2020/12/12 04:02:01;;;;;;;21.73;13.38;;;0.90;99.90;;;;;;5001942;28;20719;-81
2020/12/12 04:04:29;;;;;;;21.25;10.10;;;1.00;99.90;;;;;;5001566;28;20217;-80
2020/12/12 04:06:56;;;;;;;23.08;11.68;;;0.90;99.90;;;;;;5002045;28;20688;-80
2020/12/12 04:09:23;;;;;;;27.13;16.10;;;0.90;99.90;;;;;;5019313;28;20185;-81
2020/12/12 04:11:51;;;;;;;35.08;13.93;;;0.90;99.90;;;;;;5003357;28;20201;-80
2020/12/12 04:14:18;;;;;;;18.90;12.77;;;0.90;99.90;;;;;;5023271;28;20233;-79
2020/12/12 04:16:45;;;;;;;21.60;13.13;;;0.90;99.90;;;;;;5008463;28;20236;-80
2020/12/12 04:19:12;;;;;;;17.95;7.55;;;0.90;99.90;;;;;;5009943;28;20596;-80
2020/12/12 04:21:40;;;;;;;21.85;12.18;;;1.00;99.90;;;;;;5007977;28;20262;-81
2020/12/12 04:24:08;;;;;;;23.55;12.40;;;1.00;99.90;;;;;;5007495;28;20289;-79
2020/12/12 04:26:35;;;;;;;13.27;8.25;;;0.90;99.90;;;;;;5020588;28;20293;-80
2020/12/12 04:29:02;;;;;;;26.92;10.68;;;0.90;99.90;;;;;;5001806;28;20212;-78
2020/12/12 04:31:30;;;;;;;38.47;14.60;;;0.90;99.90;;;;;;5018942;28;20178;-78
2020/12/12 04:33:57;;;;;;;21.45;13.50;;;0.90;99.90;;;;;;5000632;28;20224;-80
2020/12/12 04:36:25;;;;;;;24.65;14.20;;;0.90;99.90;;;;;;5002602;28;20313;-78
2020/12/12 04:38:53;;;;;;;17.23;10.45;;;0.90;99.90;;;;;;4999520;28;20178;-80
2020/12/12 04:41:21;;;;;;;27.58;11.98;;;0.90;99.90;;;;;;5017299;28;20568;-80
2020/12/12 04:43:49;;;;;;;24.40;13.73;;;0.90;99.90;;;;;;4999467;28;20190;-78
2020/12/12 04:46:17;;;;;;;19.65;13.43;;;0.90;99.90;;;;;;4998998;28;20218;-79
2020/12/12 04:48:44;;;;;;;28.55;13.25;;;0.90;99.90;;;;;;4998989;28;20186;-80
2020/12/12 04:51:13;;;;;;;32.08;15.52;;;0.90;99.90;;;;;;4998274;28;20662;-79
2020/12/12 04:53:41;;;;;;;27.60;14.55;;;1.00;99.90;;;;;;4998973;28;20225;-79
2020/12/12 04:56:13;;;;;;;23.83;12.05;;;0.90;99.90;;;;;;4998039;28;20622;-80
2020/12/12 04:58:42;;;;;;;25.17;13.38;;;0.90;99.90;;;;;;5017797;28;20175;-80
2020/12/12 05:01:09;;;;;;;20.35;12.05;;;0.90;99.90;;;;;;5022016;28;20198;-82
2020/12/12 05:03:36;;;;;;;30.58;12.75;;;0.90;99.90;;;;;;5003972;28;20256;-80
2020/12/12 05:06:04;;;;;;;27.48;14.40;;;1.00;99.90;;;;;;5003349;28;20213;-79
2020/12/12 05:08:31;;;;;;;28.75;16.23;;;1.00;99.90;;;;;;5021075;28;20196;-79
2020/12/12 05:11:03;;;;;;;17.88;13.23;;;1.00;99.90;;;;;;5004661;28;20247;-82
2020/12/12 05:13:31;;;;;;;26.92;12.75;;;0.90;99.90;;;;;;5022324;28;20205;-79
2020/12/12 05:15:59;;;;;;;10.32;8.88;;;0.90;99.90;;;;;;5022622;28;20213;-81
2020/12/12 05:18:27;;;;;;;13.60;10.80;;;0.90;99.90;;;;;;5003024;28;20209;-81
2020/12/12 05:20:55;;;;;;;30.58;12.75;;;0.90;99.90;;;;;;5019742;28;20186;-80
2020/12/12 05:23:24;;;;;;;28.08;13.52;;;0.90;99.90;;;;;;5003811;28;20194;-82
2020/12/12 05:25:53;;;;;;;13.05;11.07;;;0.90;99.90;;;;;;5001784;28;20656;-79
2020/12/12 05:28:22;;;;;;;25.15;14.40;;;0.90;99.90;;;;;;5020971;28;20265;-81
2020/12/12 05:30:51;;;;;;;23.92;12.20;;;0.90;99.90;;;;;;5002441;28;20201;-81
2020/12/12 05:33:20;;;;;;;20.92;14.50;;;0.90;99.90;;;;;;5020635;28;20236;-81
2020/12/12 05:35:47;;;;;;;15.77;12.43;;;0.90;99.90;;;;;;5019586;28;20293;-80
2020/12/12 05:38:15;;;;;;;32.78;14.40;;;0.90;99.90;;;;;;5000720;28;20218;-80
2020/12/12 05:40:44;;;;;;;25.33;9.20;;;0.90;99.90;;;;;;5018330;28;20244;-79
2020/12/12 05:43:13;;;;;;;30.90;14.98;;;0.80;99.90;;;;;;5005098;28;20248;-82
2020/12/12 05:45:42;;;;;;;26.20;15.75;;;0.80;99.90;;;;;;5029936;28;20202;-81
2020/12/12 05:48:12;;;;;;;20.90;14.65;;;0.80;99.90;;;;;;5007248;28;20573;-80
2020/12/12 05:50:39;;;;;;;25.23;16.38;;;0.80;99.90;;;;;;5009447;28;20240;-80
2020/12/12 05:53:07;;;;;;;28.67;15.15;;;0.70;99.90;;;;;;5011008;28;20202;-79
2020/12/12 05:55:35;;;;;;;28.60;14.95;;;0.80;99.90;;;;;;5008645;28;20272;-79
2020/12/12 05:58:03;;;;;;;26.10;13.35;;;0.80;99.90;;;;;;5018989;28;20593;-81
2020/12/12 06:00:31;;;;;;;17.33;11.77;;;0.80;99.90;;;;;;5001276;28;20248;-80
2020/12/12 06:03:06;;;;;;;20.25;12.98;;;0.80;99.90;;;;;;5022347;28;20237;-81
2020/12/12 06:05:35;;;;;;;30.05;14.85;;;0.80;99.90;;;;;;5011161;28;20202;-80
2020/12/12 06:08:04;;;;;;;21.80;16.60;;;0.90;99.90;;;;;;5013190;28;20198;-79
2020/12/12 06:10:33;;;;;;;20.02;13.40;;;0.90;99.90;;;;;;5030416;28;20175;-78
2020/12/12 06:13:03;;;;;;;22.85;15.63;;;0.80;99.90;;;;;;5007901;28;20210;-81
2020/12/12 06:15:36;;;;;;;22.33;11.43;;;0.80;99.90;;;;;;5006446;28;20218;-79
2020/12/12 06:18:21;;;;;;;21.70;11.75;;;0.80;99.90;;;;;;5035707;28;20198;-80
2020/12/12 06:20:52;;;;;;;16.30;11.88;;;0.70;99.90;;;;;;5035047;28;20224;-80
2020/12/12 06:23:19;;;;;;;25.02;16.77;;;0.70;99.90;;;;;;5035842;28;20182;-79
2020/12/12 06:25:47;;;;;;;25.23;13.73;;;0.70;99.90;;;;;;5017819;28;20244;-78
2020/12/12 06:28:20;;;;;;;23.77;14.93;;;0.70;99.90;;;;;;5035901;28;20181;-79
2020/12/12 06:30:49;;;;;;;13.65;10.75;;;0.70;99.90;;;;;;5034124;28;20189;-79
2020/12/12 06:33:16;;;;;;;26.15;13.98;;;0.70;99.90;;;;;;5003564;28;20201;-81
2020/12/12 06:35:44;;;;;;;20.27;16.00;;;0.70;99.90;;;;;;5021529;28;20260;-80
2020/12/12 06:38:24;;;;;;;26.67;12.00;;;0.70;99.90;;;;;;5019948;28;20252;-81
2020/12/12 06:40:53;;;;;;;19.17;14.13;;;0.70;99.90;;;;;;5021304;28;20246;-81
2020/12/12 06:43:29;;;;;;;17.50;11.30;;;0.70;99.90;;;;;;5003021;28;20691;-80
2020/12/12 06:45:58;;;;;;;17.25;9.43;;;0.70;99.90;;;;;;5020123;28;20279;-79
2020/12/12 06:48:27;;;;;;;24.40;14.23;;;0.70;99.90;;;;;;5019977;28;20182;-81
2020/12/12 06:51:09;;;;;;;20.85;14.60;;;0.70;99.90;;;;;;5000790;28;20281;-83
2020/12/12 06:53:58;;;;;;;30.00;13.65;;;0.70;99.90;;;;;;5002015;28;20201;-83
2020/12/12 06:56:41;;;;;;;18.30;13.93;;;0.70;99.90;;;;;;5005043;28;20214;-81
2020/12/12 06:59:40;;;;;;;20.67;13.10;;;0.80;99.90;;;;;;4989318;28;20204;-81
2020/12/12 07:02:20;;;;;;;19.00;11.13;;;0.70;99.90;;;;;;5005242;28;20229;-80
2020/12/12 07:05:18;;;;;;;19.30;10.60;;;0.80;99.90;;;;;;5005239;28;20224;-80
2020/12/12 07:07:52;;;;;;;28.58;13.02;;;0.80;99.90;;;;;;5006392;28;20186;-84
2020/12/12 07:17:14;;;;;;;23.80;12.00;;;0.80;99.90;;;;;;5024307;28;20248;-84
2020/12/12 07:19:50;;;;;;;25.27;15.07;;;0.80;99.90;;;;;;5025948;28;20193;-84
2020/12/12 07:22:39;;;;;;;21.27;13.70;;;0.80;99.90;;;;;;5012089;28;20194;-82
2020/12/12 07:25:09;;;;;;;25.13;14.82;;;0.80;99.90;;;;;;5012351;28;20269;-83
2020/12/12 07:27:40;;;;;;;31.90;16.40;;;0.80;99.90;;;;;;5013190;28;20154;-84
2020/12/12 07:30:24;;;;;;;30.83;14.98;;;0.80;99.90;;;;;;5030042;28;20193;-86
2020/12/12 07:33:02;;;;;;;32.55;14.68;;;0.80;99.90;;;;;;5032243;28;20185;-86
2020/12/12 07:35:56;;;;;;;23.90;13.77;;;0.80;99.90;;;;;;5010179;28;20224;-84
2020/12/12 07:38:30;;;;;;;32.55;15.13;;;0.80;99.90;;;;;;5015606;28;20232;-80
2020/12/12 07:41:13;;;;;;;24.27;16.60;;;0.80;99.90;;;;;;5014484;28;20198;-83
2020/12/12 07:43:57;;;;;;;31.05;16.60;;;0.80;99.90;;;;;;5021661;28;20221;-81
2020/12/12 07:46:38;;;;;;;23.85;14.65;;;0.70;99.90;;;;;;5023287;28;20221;-83
2020/12/12 07:49:10;;;;;;;27.85;15.05;;;0.70;99.90;;;;;;5007854;28;20198;-80
2020/12/12 07:51:39;;;;;;;21.95;11.30;;;0.80;99.90;;;;;;5025971;28;20558;-80
2020/12/12 07:54:16;;;;;;;30.02;17.58;;;0.70;99.90;;;;;;5027823;28;20194;-81
2020/12/12 07:56:51;;;;;;;32.65;16.20;;;0.70;99.90;;;;;;5028844;28;20205;-80
2020/12/12 07:59:21;;;;;;;35.75;16.77;;;0.80;99.90;;;;;;5010320;28;20198;-81
2020/12/12 08:01:50;;;;;;;33.55;19.05;;;0.80;99.90;;;;;;5011752;28;20229;-81
2020/12/12 08:04:20;;;;;;;30.33;18.27;;;0.80;99.90;;;;;;5008974;28;20673;-79
2020/12/12 08:06:50;;;;;;;21.08;15.75;;;0.80;99.90;;;;;;5015855;28;20245;-78
2020/12/12 08:09:19;;;;;;;33.20;18.42;;;0.80;99.90;;;;;;5033226;28;20186;-82
2020/12/12 08:11:56;;;;;;;29.75;21.42;;;0.80;99.90;;;;;;5005973;28;20198;-81
2020/12/12 08:14:27;;;;;;;32.45;16.67;;;0.90;99.90;;;;;;5006084;28;20190;-82
2020/12/12 08:16:58;;;;;;;27.83;15.30;;;0.90;99.90;;;;;;4990314;28;20226;-81
2020/12/12 08:19:29;;;;;;;28.75;18.00;;;0.90;99.90;;;;;;5005160;28;20244;-79
2020/12/12 08:22:10;;;;;;;31.90;16.25;;;0.90;99.90;;;;;;5025018;28;20195;-81
2020/12/12 08:24:39;;;;;;;39.13;19.90;;;0.90;99.90;;;;;;5006517;28;20669;-82
2020/12/12 08:27:11;;;;;;;34.35;16.00;;;0.90;99.90;;;;;;5004337;28;20657;-82
2020/12/12 08:29:49;;;;;;;41.50;22.50;;;0.90;99.90;;;;;;5005031;28;20198;-81
2020/12/12 08:32:31;;;;;;;19.42;17.05;;;1.00;99.90;;;;;;5004323;28;20193;-80
2020/12/12 08:35:12;;;;;;;34.58;19.90;;;1.00;99.90;;;;;;5004299;28;20705;-80
2020/12/12 08:37:50;;;;;;;34.20;18.40;;;1.10;99.90;;;;;;4988458;28;20214;-80
2020/12/12 08:40:26;;;;;;;26.50;18.38;;;1.10;99.90;;;;;;5021982;28;20193;-80
2020/12/12 08:42:59;;;;;;;41.33;19.73;;;1.20;99.90;;;;;;5021705;28;20545;-81
2020/12/12 08:45:28;;;;;;;49.58;24.63;;;1.20;99.90;;;;;;5005892;28;20281;-82
2020/12/12 08:48:08;;;;;;;34.03;22.60;;;1.20;99.90;;;;;;5012106;28;20193;-80
2020/12/12 08:50:54;;;;;;;34.55;18.80;;;1.30;99.90;;;;;;5015392;28;20210;-82
2020/12/12 08:53:41;;;;;;;31.85;17.52;;;1.40;99.90;;;;;;4989654;28;20206;-81
2020/12/12 08:56:27;;;;;;;39.25;19.73;;;1.40;99.90;;;;;;4982579;28;20218;-81
2020/12/12 08:58:57;;;;;;;26.15;15.05;;;1.40;99.90;;;;;;4999205;28;20208;-82
2020/12/12 09:01:34;;;;;;;41.53;23.63;;;1.40;99.90;;;;;;5000493;28;20205;-80
2020/12/12 09:04:20;;;;;;;37.28;17.90;;;1.40;99.90;;;;;;4969472;28;20255;-83
2020/12/12 09:06:55;;;;;;;42.05;20.25;;;1.40;99.90;;;;;;4985538;28;20207;-82
2020/12/12 09:09:25;;;;;;;35.30;21.58;;;1.50;99.90;;;;;;4997171;23;20208;-82
2020/12/12 09:11:57;;;;;;;39.10;15.75;;;1.50;99.90;;;;;;4975634;29;20204;-80
2020/12/12 09:14:28;;;;;;;27.90;16.08;;;1.50;99.90;;;;;;4971679;29;20220;-84
2020/12/12 09:16:59;;;;;;;35.28;22.13;;;1.50;99.90;;;;;;4972206;29;20593;-85
2020/12/12 09:19:27;;;;;;;30.95;15.48;;;1.50;99.90;;;;;;4967580;28;20214;-86
2020/12/12 09:21:57;;;;;;;30.40;14.52;;;1.50;99.90;;;;;;4981456;28;20183;-84
2020/12/12 09:24:26;;;;;;;27.38;13.73;;;1.50;99.90;;;;;;4981095;28;20180;-83
2020/12/12 09:26:56;;;;;;;30.80;18.77;;;1.50;99.90;;;;;;4981407;28;20188;-83
2020/12/12 09:29:27;;;;;;;32.20;17.92;;;1.50;99.90;;;;;;4980464;28;20219;-84
2020/12/12 09:34:46;;;;;;;38.17;16.05;;;1.50;99.90;;;;;;4980176;28;20203;-85
2020/12/12 09:37:23;;;;;;;32.50;15.77;;;1.50;99.90;;;;;;4972991;28;20249;-85
2020/12/12 09:39:52;;;;;;;27.10;16.83;;;1.50;99.90;;;;;;4984736;28;20211;-84
2020/12/12 09:42:24;;;;;;;35.28;20.35;;;1.50;99.90;;;;;;4964317;28;20310;-84
2020/12/12 09:44:53;;;;;;;30.70;19.23;;;1.40;99.90;;;;;;4979109;28;20203;-83
2020/12/12 09:47:21;;;;;;;33.35;17.67;;;1.50;99.90;;;;;;4962524;28;20202;-84
2020/12/12 09:49:50;;;;;;;26.35;15.38;;;1.50;99.90;;;;;;4962525;28;20219;-84
2020/12/12 09:52:22;;;;;;;34.25;20.05;;;1.50;99.90;;;;;;4962150;28;20191;-84
2020/12/12 09:54:50;;;;;;;38.03;19.08;;;1.50;99.90;;;;;;4980084;28;20180;-84
2020/12/12 09:57:18;;;;;;;30.30;19.48;;;1.50;99.90;;;;;;4962592;28;20567;-85
2020/12/12 09:59:50;;;;;;;26.85;16.67;;;1.40;99.90;;;;;;4981451;28;20697;-85
2020/12/12 10:02:19;;;;;;;51.13;25.40;;;1.50;99.90;;;;;;4963750;28;20188;-84
2020/12/12 10:04:48;;;;;;;32.60;17.20;;;1.60;99.90;;;;;;4979648;28;20274;-84
2020/12/12 10:07:17;;;;;;;25.67;17.38;;;1.70;99.90;;;;;;4945805;28;20203;-84
2020/12/12 10:09:45;;;;;;;24.00;17.00;;;1.70;99.90;;;;;;4960836;28;20246;-85
2020/12/12 10:12:13;;;;;;;34.75;22.13;;;1.80;99.90;;;;;;4979814;28;20192;-85
2020/12/12 10:14:41;;;;;;;27.05;16.10;;;1.70;99.90;;;;;;4979868;28;20171;-84
2020/12/12 10:17:09;;;;;;;25.40;13.63;;;1.80;99.90;;;;;;4961914;28;20195;-84
2020/12/12 10:19:38;;;;;;;40.30;22.17;;;1.90;99.90;;;;;;4931004;29;20236;-84
2020/12/12 10:22:07;;;;;;;29.77;17.88;;;2.00;99.90;;;;;;4966297;29;20192;-84
2020/12/12 10:24:35;;;;;;;27.00;16.52;;;2.20;99.90;;;;;;4945366;29;20559;-85
2020/12/12 10:27:05;;;;;;;44.55;23.95;;;2.30;99.90;;;;;;4963707;28;20734;-86
2020/12/12 10:29:33;;;;;;;38.63;18.15;;;2.30;99.90;;;;;;4946748;28;20251;-84
2020/12/12 10:32:02;;;;;;;40.85;23.90;;;2.50;99.90;;;;;;4948071;29;20196;-85
2020/12/12 10:34:32;;;;;;;48.17;21.15;;;2.50;99.90;;;;;;4955445;28;20254;-86
2020/12/12 10:37:00;;;;;;;39.22;17.52;;;2.50;99.90;;;;;;4990623;28;20203;-85
2020/12/12 10:39:31;;;;;;;40.15;24.00;;;2.50;99.90;;;;;;4986198;28;20282;-86
2020/12/12 10:42:02;;;;;;;35.75;17.00;;;2.60;99.90;;;;;;4964700;29;20206;-86
2020/12/12 10:44:29;;;;;;;29.58;20.98;;;2.80;99.90;;;;;;4963060;29;20195;-87
2020/12/12 10:46:58;;;;;;;29.30;15.98;;;2.70;99.90;;;;;;4945544;29;20188;-86
2020/12/12 10:49:26;;;;;;;30.13;18.88;;;2.80;99.90;;;;;;4961475;28;20244;-86
2020/12/12 10:51:55;;;;;;;31.73;19.98;;;2.90;99.90;;;;;;4961864;29;20176;-85
2020/12/12 10:54:26;;;;;;;38.75;23.00;;;3.00;99.90;;;;;;4944689;29;20671;-87
2020/12/12 10:56:56;;;;;;;28.52;18.02;;;3.00;99.90;;;;;;4961365;28;20199;-86
2020/12/12 10:59:23;;;;;;;36.00;19.38;;;3.10;99.90;;;;;;4952818;29;20223;-82
2020/12/12 11:01:55;;;;;;;33.15;20.40;;;3.10;99.90;;;;;;4970669;29;20180;-85
2020/12/12 11:04:23;;;;;;;28.15;14.93;;;3.30;99.90;;;;;;4974475;29;20187;-86
2020/12/12 11:06:51;;;;;;;26.73;16.33;;;3.30;99.90;;;;;;4959111;29;20207;-87
2020/12/12 11:09:20;;;;;;;34.65;17.50;;;3.30;99.90;;;;;;4960367;28;20212;-85
2020/12/12 11:11:47;;;;;;;27.38;17.40;;;3.40;99.90;;;;;;4961219;28;20207;-87
2020/12/12 11:14:16;;;;;;;38.63;21.23;;;3.40;99.90;;;;;;4961002;28;20272;-85
2020/12/12 11:16:43;;;;;;;24.08;15.60;;;3.40;99.90;;;;;;4961705;28;20215;-86
2020/12/12 11:19:11;;;;;;;30.25;15.68;;;3.50;99.90;;;;;;4978370;28;20224;-84
2020/12/12 11:21:40;;;;;;;28.25;16.40;;;3.40;99.90;;;;;;4977826;28;20175;-85
2020/12/12 11:24:08;;;;;;;38.90;18.83;;;3.40;99.90;;;;;;4949377;29;20200;-85
2020/12/12 11:26:36;;;;;;;26.48;15.93;;;3.40;99.90;;;;;;4951573;29;20208;-84
2020/12/12 11:29:04;;;;;;;29.67;18.00;;;3.50;99.90;;;;;;4955119;29;20223;-86
2020/12/12 11:31:32;;;;;;;39.00;20.08;;;3.60;99.90;;;;;;4954801;29;20203;-85
2020/12/12 11:34:05;;;;;;;21.48;15.10;;;3.50;99.90;;;;;;4969047;29;20187;-85
2020/12/12 11:36:51;;;;;;;31.15;17.42;;;3.50;99.90;;;;;;4951414;29;20215;-85
2020/12/12 11:39:22;;;;;;;28.23;19.20;;;3.50;99.90;;;;;;4961455;28;20251;-86
2020/12/12 11:42:04;;;;;;;27.75;17.15;;;3.50;99.90;;;;;;4964381;28;20318;-83
2020/12/12 11:44:45;;;;;;;29.77;18.88;;;3.60;99.90;;;;;;4986572;28;20246;-82
2020/12/12 11:47:13;;;;;;;31.33;17.30;;;3.70;99.90;;;;;;4984848;28;20614;-80
2020/12/12 11:53:13;;;;;;;19.77;15.52;;;3.50;99.90;;;;;;4984779;28;20289;-84
2020/12/12 11:55:40;;;;;;;34.42;19.40;;;3.60;99.90;;;;;;4985119;28;20360;-86
2020/12/12 11:58:07;;;;;;;40.33;18.33;;;3.60;99.90;;;;;;4981864;28;20207;-86
2020/12/12 12:00:34;;;;;;;35.92;19.13;;;3.70;99.90;;;;;;4963995;28;20219;-85
2020/12/12 12:03:03;;;;;;;30.10;14.85;;;3.70;99.90;;;;;;4963707;28;20202;-87
2020/12/12 12:05:42;;;;;;;21.70;14.05;;;3.70;99.90;;;;;;4981379;28;20179;-86
2020/12/12 12:08:20;;;;;;;28.63;17.20;;;3.70;99.90;;;;;;4981101;28;20210;-89
2020/12/12 12:10:57;;;;;;;26.95;16.58;;;3.50;99.90;;;;;;4991678;28;20211;-87
2020/12/12 12:13:24;;;;;;;30.88;19.10;;;3.40;99.90;;;;;;4998493;28;20246;-85
2020/12/12 12:19:32;;;;;;;24.35;14.95;;;3.30;99.90;;;;;;4897995;28;20227;-88
2020/12/12 12:22:18;;;;;;;37.90;17.95;;;3.30;99.90;;;;;;4976552;28;20247;-85
2020/12/12 12:24:52;;;;;;;51.67;22.00;;;3.20;99.90;;;;;;4974928;28;20230;-83
2020/12/12 12:27:41;;;;;;;26.33;16.05;;;3.20;99.90;;;;;;4987991;28;20191;-82
2020/12/12 12:30:54;;;;;;;28.63;17.50;;;3.20;99.90;;;;;;4983584;28;20215;-82
2020/12/12 12:33:27;;;;;;;37.75;14.75;;;3.20;99.90;;;;;;4971557;28;20219;-86
2020/12/12 12:35:56;;;;;;;23.98;15.93;;;3.20;99.90;;;;;;4971045;28;20203;-83
2020/12/12 12:38:39;;;;;;;20.77;14.07;;;3.20;99.90;;;;;;4993589;28;20219;-86
2020/12/12 12:45:20;;;;;;;25.08;17.33;;;3.10;99.90;;;;;;4949852;29;20200;-87
2020/12/12 12:47:49;;;;;;;31.65;17.42;;;3.10;99.90;;;;;;4980273;28;20282;-87
2020/12/12 12:50:33;;;;;;;20.98;16.27;;;3.10;99.90;;;;;;4974932;28;20219;-86
2020/12/12 12:53:06;;;;;;;31.23;17.48;;;3.00;99.90;;;;;;4968630;28;20196;-88
2020/12/12 12:55:34;;;;;;;24.58;12.45;;;3.00;99.90;;;;;;4983239;28;20192;-82
2020/12/12 12:58:04;;;;;;;22.83;14.40;;;3.00;99.90;;;;;;4968320;28;20215;-84
2020/12/12 13:00:32;;;;;;;26.63;15.15;;;3.00;99.90;;;;;;4983850;28;20250;-82
2020/12/12 13:02:59;;;;;;;27.05;13.90;;;3.00;99.90;;;;;;4991613;28;20207;-81
2020/12/12 13:06:05;;;;;;;20.92;15.18;;;3.00;99.90;;;;;;4989664;28;20195;-83
2020/12/12 13:08:56;;;;;;;26.33;18.00;;;3.00;99.90;;;;;;4961260;28;20204;-84
2020/12/12 13:11:26;;;;;;;24.52;15.32;;;3.10;99.90;;;;;;4963814;28;20195;-83
2020/12/12 13:13:53;;;;;;;30.85;16.13;;;3.10;99.90;;;;;;4979651;28;20367;-81
2020/12/12 13:16:24;;;;;;;32.15;16.73;;;3.20;99.90;;;;;;4963667;28;20196;-82
2020/12/12 13:19:00;;;;;;;30.42;15.32;;;3.40;99.90;;;;;;4981818;28;20560;-82
2020/12/12 13:21:36;;;;;;;31.83;19.67;;;3.40;99.90;;;;;;4982385;28;20183;-82